Time,TemperatureF,DewpointF,PressureIn,WindDirection,WindDirectionDegrees,WindSpeedMPH,WindSpeedGustMPH,Humidity,HourlyPrecipIn,Conditions,Clouds,dailyrainin,SolarRadiationWatts/m^2,SoftwareType,DateUTC
2013-05-24 00:11:00,40.0,37.0,-100.00,West,268,1.0,3.0,90,0.00,,,0.00,0.000000,,2013-05-24 08:11:00,
2013-05-24 00:22:00,40.0,37.0,-100.00,West,268,1.0,3.0,90,0.00,,,0.00,0.000000,,2013-05-24 08:22:00,
2013-05-24 00:32:00,40.0,37.0,-100.00,West,268,1.0,3.0,90,0.00,,,0.00,0.000000,,2013-05-24 08:32:00,
2013-05-24 00:41:00,40.0,37.0,-100.00,West,268,1.0,3.0,90,0.00,,,0.00,0.000000,,2013-05-24 08:41:00,
2013-05-24 00:51:00,40.0,37.0,-100.00,West,268,1.0,3.0,90,0.00,,,0.00,0.000000,,2013-05-24 08:51:00,
2013-05-24 01:11:00,41.0,38.0,-100.00,ENE,69,0.0,0.0,88,0.00,,,0.00,0.000000,,2013-05-24 09:11:00,
2013-05-24 01:21:00,41.0,38.0,-100.00,ENE,69,0.0,0.0,88,0.00,,,0.00,0.000000,,2013-05-24 09:21:00,
2013-05-24 01:32:00,41.0,38.0,-100.00,ENE,69,0.0,0.0,88,0.00,,,0.00,0.000000,,2013-05-24 09:32:00,
2013-05-24 01:42:00,41.0,38.0,-100.00,ENE,69,0.0,0.0,88,0.00,,,0.00,0.000000,,2013-05-24 09:42:00,
2013-05-24 01:52:00,41.0,38.0,-100.00,ENE,69,0.0,0.0,88,0.00,,,0.00,0.000000,,2013-05-24 09:52:00,
2013-05-24 02:12:00,40.0,38.0,-100.00,WNW,293,0.0,0.0,92,0.00,,,0.00,0.000000,,2013-05-24 10:12:00,
2013-05-24 02:22:00,40.0,38.0,-100.00,WNW,293,0.0,0.0,92,0.00,,,0.00,0.000000,,2013-05-24 10:22:00,
2013-05-24 02:32:00,40.0,38.0,-100.00,WNW,293,0.0,0.0,92,0.00,,,0.00,0.000000,,2013-05-24 10:32:00,
2013-05-24 02:42:00,40.0,38.0,-100.00,WNW,293,0.0,0.0,92,0.00,,,0.00,0.000000,,2013-05-24 10:42:00,
2013-05-24 02:52:00,40.0,38.0,-100.00,WNW,293,0.0,0.0,92,0.00,,,0.00,0.000000,,2013-05-24 10:52:00,
2013-05-24 03:12:00,41.0,38.0,-100.00,SSE,167,0.0,0.0,90,0.00,,,0.00,0.000000,,2013-05-24 11:12:00,
2013-05-24 03:22:00,41.0,38.0,-100.00,SSE,167,0.0,0.0,90,0.00,,,0.00,0.000000,,2013-05-24 11:22:00,
2013-05-24 03:32:00,41.0,38.0,-100.00,SSE,167,0.0,0.0,90,0.00,,,0.00,0.000000,,2013-05-24 11:32:00,
2013-05-24 03:41:00,41.0,38.0,-100.00,SSE,167,0.0,0.0,90,0.00,,,0.00,0.000000,,2013-05-24 11:41:00,
2013-05-24 03:51:00,41.0,38.0,-100.00,SSE,167,0.0,0.0,90,0.00,,,0.00,0.000000,,2013-05-24 11:51:00,
2013-05-24 04:11:00,41.0,39.0,-100.00,WNW,298,0.0,0.0,91,0.00,,,0.00,0.000000,,2013-05-24 12:11:00,
2013-05-24 04:21:00,41.0,39.0,-100.00,WNW,298,0.0,0.0,91,0.00,,,0.00,0.000000,,2013-05-24 12:21:00,
2013-05-24 04:32:00,41.0,39.0,-100.00,WNW,298,0.0,0.0,91,0.00,,,0.00,0.000000,,2013-05-24 12:32:00,
2013-05-24 04:42:00,41.0,39.0,-100.00,WNW,298,0.0,0.0,91,0.00,,,0.00,0.000000,,2013-05-24 12:42:00,
2013-05-24 04:51:00,41.0,39.0,-100.00,WNW,298,0.0,0.0,91,0.00,,,0.00,0.000000,,2013-05-24 12:51:00,
2013-05-24 05:11:00,41.0,38.0,-100.00,West,273,0.0,0.0,90,0.00,,,0.00,0.000000,,2013-05-24 13:11:00,
2013-05-24 05:21:00,41.0,38.0,-100.00,West,273,0.0,0.0,90,0.00,,,0.00,0.000000,,2013-05-24 13:21:00,
2013-05-24 05:31:00,41.0,38.0,-100.00,West,273,0.0,0.0,90,0.00,,,0.00,0.000000,,2013-05-24 13:31:00,
2013-05-24 05:41:00,41.0,38.0,-100.00,West,273,0.0,0.0,90,0.00,,,0.00,0.000000,,2013-05-24 13:41:00,
2013-05-24 05:52:00,41.0,38.0,-100.00,West,273,0.0,0.0,90,0.00,,,0.00,0.000000,,2013-05-24 13:52:00,
2013-05-24 06:11:00,41.0,37.0,-100.00,SSW,212,0.0,0.0,87,0.00,,,0.00,3.000000,,2013-05-24 14:11:00,
2013-05-24 06:21:00,41.0,37.0,-100.00,SSW,212,0.0,0.0,87,0.00,,,0.00,3.000000,,2013-05-24 14:21:00,
2013-05-24 06:31:00,41.0,37.0,-100.00,SSW,212,0.0,0.0,87,0.00,,,0.00,3.000000,,2013-05-24 14:31:00,
2013-05-24 06:42:00,41.0,37.0,-100.00,SSW,212,0.0,0.0,87,0.00,,,0.00,3.000000,,2013-05-24 14:42:00,
2013-05-24 06:51:00,41.0,37.0,-100.00,SSW,212,0.0,0.0,87,0.00,,,0.00,3.000000,,2013-05-24 14:51:00,
2013-05-24 07:11:00,43.0,39.0,-100.00,NW,307,0.0,0.0,85,0.00,,,0.00,16.000000,,2013-05-24 15:11:00,
2013-05-24 07:21:00,43.0,39.0,-100.00,NW,307,0.0,0.0,85,0.00,,,0.00,16.000000,,2013-05-24 15:21:00,
2013-05-24 07:32:00,43.0,39.0,-100.00,NW,307,0.0,0.0,85,0.00,,,0.00,16.000000,,2013-05-24 15:32:00,
2013-05-24 07:43:00,43.0,39.0,-100.00,NW,307,0.0,0.0,85,0.00,,,0.00,16.000000,,2013-05-24 15:43:00,
2013-05-24 07:52:00,43.0,39.0,-100.00,NW,307,0.0,0.0,85,0.00,,,0.00,16.000000,,2013-05-24 15:52:00,
2013-05-24 08:12:00,44.0,39.0,-100.00,East,85,0.0,0.0,84,0.00,,,-99.99,71.000000,,2013-05-24 16:12:00,
2013-05-24 08:22:00,44.0,39.0,-100.00,East,85,0.0,0.0,84,0.00,,,-99.99,71.000000,,2013-05-24 16:22:00,
2013-05-24 08:32:00,44.0,39.0,-100.00,East,85,0.0,0.0,84,0.00,,,-99.99,71.000000,,2013-05-24 16:32:00,
2013-05-24 08:42:00,44.0,39.0,-100.00,East,85,0.0,0.0,84,0.00,,,-99.99,71.000000,,2013-05-24 16:42:00,
2013-05-24 08:52:00,44.0,39.0,-100.00,East,85,0.0,0.0,84,0.00,,,-99.99,71.000000,,2013-05-24 16:52:00,
2013-05-24 09:12:00,46.0,40.0,-100.00,SE,143,2.0,4.0,78,0.00,,,0.00,147.000000,,2013-05-24 17:12:00,
2013-05-24 09:22:00,46.0,40.0,-100.00,SE,143,2.0,4.0,78,0.00,,,0.00,147.000000,,2013-05-24 17:22:00,
2013-05-24 09:32:00,46.0,40.0,-100.00,SE,143,2.0,4.0,78,0.00,,,0.00,147.000000,,2013-05-24 17:32:00,
2013-05-24 09:41:00,46.0,40.0,-100.00,SE,143,2.0,4.0,78,0.00,,,0.00,147.000000,,2013-05-24 17:41:00,
2013-05-24 09:52:00,46.0,40.0,-100.00,SE,143,2.0,4.0,78,0.00,,,0.00,147.000000,,2013-05-24 17:52:00,
2013-05-24 10:11:00,51.0,40.0,-100.00,ESE,118,3.0,4.0,67,0.00,,,0.00,285.000000,,2013-05-24 18:11:00,
2013-05-24 10:21:00,51.0,40.0,-100.00,ESE,118,3.0,4.0,67,0.00,,,0.00,285.000000,,2013-05-24 18:21:00,
2013-05-24 10:32:00,51.0,40.0,-100.00,ESE,118,3.0,4.0,67,0.00,,,0.00,285.000000,,2013-05-24 18:32:00,
2013-05-24 10:41:00,51.0,40.0,-100.00,ESE,118,3.0,4.0,67,0.00,,,0.00,285.000000,,2013-05-24 18:41:00,
2013-05-24 10:51:00,51.0,40.0,-100.00,ESE,118,3.0,4.0,67,0.00,,,0.00,285.000000,,2013-05-24 18:51:00,
2013-05-24 11:11:00,52.0,40.0,-100.00,SE,131,3.0,7.0,64,0.00,,,0.00,436.000000,,2013-05-24 19:11:00,
2013-05-24 11:21:00,52.0,40.0,-100.00,SE,131,3.0,7.0,64,0.00,,,0.00,436.000000,,2013-05-24 19:21:00,
2013-05-24 11:31:00,52.0,40.0,-100.00,SE,131,3.0,7.0,64,0.00,,,0.00,436.000000,,2013-05-24 19:31:00,
2013-05-24 11:41:00,52.0,40.0,-100.00,SE,131,3.0,7.0,64,0.00,,,0.00,436.000000,,2013-05-24 19:41:00,
2013-05-24 11:52:00,52.0,40.0,-100.00,SE,131,3.0,7.0,64,0.00,,,0.00,436.000000,,2013-05-24 19:52:00,
2013-05-24 12:11:00,55.0,40.0,-100.00,SSE,157,5.0,9.0,57,0.00,,,0.00,766.000000,,2013-05-24 20:11:00,
2013-05-24 12:21:00,55.0,40.0,-100.00,SSE,157,5.0,9.0,57,0.00,,,0.00,766.000000,,2013-05-24 20:21:00,
2013-05-24 12:31:00,55.0,40.0,-100.00,SSE,157,5.0,9.0,57,0.00,,,0.00,766.000000,,2013-05-24 20:31:00,
2013-05-24 12:41:00,55.0,40.0,-100.00,SSE,157,5.0,9.0,57,0.00,,,0.00,766.000000,,2013-05-24 20:41:00,
2013-05-24 12:51:00,55.0,40.0,-100.00,SSE,157,5.0,9.0,57,0.00,,,0.00,766.000000,,2013-05-24 20:51:00,
2013-05-24 13:11:00,56.0,40.0,-100.00,SE,128,6.0,10.0,54,0.00,,,0.00,851.000000,,2013-05-24 21:11:00,
2013-05-24 13:21:00,56.0,40.0,-100.00,SE,128,6.0,10.0,54,0.00,,,0.00,851.000000,,2013-05-24 21:21:00,
2013-05-24 13:32:00,56.0,40.0,-100.00,SE,128,6.0,10.0,54,0.00,,,0.00,851.000000,,2013-05-24 21:32:00,
2013-05-24 13:42:00,56.0,40.0,-100.00,SE,128,6.0,10.0,54,0.00,,,0.00,851.000000,,2013-05-24 21:42:00,
2013-05-24 13:52:00,56.0,40.0,-100.00,SE,128,6.0,10.0,54,0.00,,,0.00,851.000000,,2013-05-24 21:52:00,
2013-05-24 14:12:00,58.0,41.0,-100.00,SSE,154,7.0,11.0,53,0.00,,,0.00,901.000000,,2013-05-24 22:12:00,
2013-05-24 14:22:00,58.0,41.0,-100.00,SSE,154,7.0,11.0,53,0.00,,,0.00,901.000000,,2013-05-24 22:22:00,
2013-05-24 14:32:00,58.0,41.0,-100.00,SSE,154,7.0,11.0,53,0.00,,,0.00,901.000000,,2013-05-24 22:32:00,
2013-05-24 14:42:00,58.0,41.0,-100.00,SSE,154,7.0,11.0,53,0.00,,,0.00,901.000000,,2013-05-24 22:42:00,
2013-05-24 14:52:00,58.0,41.0,-100.00,SSE,154,7.0,11.0,53,0.00,,,0.00,901.000000,,2013-05-24 22:52:00,
2013-05-24 15:11:00,58.0,40.0,-100.00,SSE,158,8.0,11.0,51,0.00,,,0.00,916.000000,,2013-05-24 23:11:00,
2013-05-24 15:22:00,58.0,40.0,-100.00,SSE,158,8.0,11.0,51,0.00,,,0.00,916.000000,,2013-05-24 23:22:00,
2013-05-24 15:32:00,58.0,40.0,-100.00,SSE,158,8.0,11.0,51,0.00,,,0.00,916.000000,,2013-05-24 23:32:00,
2013-05-24 15:42:00,58.0,40.0,-100.00,SSE,158,8.0,11.0,51,0.00,,,0.00,916.000000,,2013-05-24 23:42:00,
2013-05-24 15:52:00,58.0,40.0,-100.00,SSE,158,8.0,11.0,51,0.00,,,0.00,916.000000,,2013-05-24 23:52:00,
2013-05-24 16:11:00,58.0,39.0,-100.00,SSE,159,8.0,12.0,50,0.00,,,0.00,835.000000,,2013-05-25 00:11:00,
2013-05-24 16:21:00,58.0,39.0,-100.00,SSE,159,8.0,12.0,50,0.00,,,0.00,835.000000,,2013-05-25 00:21:00,
2013-05-24 16:32:00,58.0,39.0,-100.00,SSE,159,8.0,12.0,50,0.00,,,0.00,835.000000,,2013-05-25 00:32:00,
2013-05-24 16:41:00,58.0,39.0,-100.00,SSE,159,8.0,12.0,50,0.00,,,0.00,835.000000,,2013-05-25 00:41:00,
2013-05-24 16:51:00,58.0,39.0,-100.00,SSE,159,8.0,12.0,50,0.00,,,0.00,835.000000,,2013-05-25 00:51:00,
2013-05-24 17:11:00,58.0,39.0,-100.00,SSE,166,7.0,13.0,49,0.00,,,0.00,755.000000,,2013-05-25 01:11:00,
2013-05-24 17:22:00,58.0,39.0,-100.00,SSE,166,7.0,13.0,49,0.00,,,0.00,755.000000,,2013-05-25 01:22:00,
2013-05-24 17:32:00,58.0,39.0,-100.00,SSE,166,7.0,13.0,49,0.00,,,0.00,755.000000,,2013-05-25 01:32:00,
2013-05-24 17:41:00,58.0,39.0,-100.00,SSE,166,7.0,13.0,49,0.00,,,0.00,755.000000,,2013-05-25 01:41:00,
2013-05-24 17:52:00,58.0,39.0,-100.00,SSE,166,7.0,13.0,49,0.00,,,0.00,755.000000,,2013-05-25 01:52:00,
2013-05-24 18:11:00,57.0,38.0,-100.00,SSE,158,8.0,11.0,49,0.00,,,0.00,624.000000,,2013-05-25 02:11:00,
2013-05-24 18:21:00,57.0,38.0,-100.00,SSE,158,8.0,11.0,49,0.00,,,0.00,624.000000,,2013-05-25 02:21:00,
2013-05-24 18:31:00,57.0,38.0,-100.00,SSE,158,8.0,11.0,49,0.00,,,0.00,624.000000,,2013-05-25 02:31:00,
2013-05-24 18:42:00,57.0,38.0,-100.00,SSE,158,8.0,11.0,49,0.00,,,0.00,624.000000,,2013-05-25 02:42:00,
2013-05-24 18:51:00,57.0,38.0,-100.00,SSE,158,8.0,11.0,49,0.00,,,0.00,624.000000,,2013-05-25 02:51:00,
2013-05-24 19:11:00,57.0,38.0,-100.00,SSE,157,7.0,11.0,48,0.00,,,0.00,498.000000,,2013-05-25 03:11:00,
2013-05-24 19:21:00,57.0,38.0,-100.00,SSE,157,7.0,11.0,48,0.00,,,0.00,498.000000,,2013-05-25 03:21:00,
2013-05-24 19:32:00,57.0,38.0,-100.00,SSE,157,7.0,11.0,48,0.00,,,0.00,498.000000,,2013-05-25 03:32:00,
2013-05-24 19:43:00,57.0,38.0,-100.00,SSE,157,7.0,11.0,48,0.00,,,0.00,498.000000,,2013-05-25 03:43:00,
2013-05-24 19:53:00,57.0,38.0,-100.00,SSE,157,7.0,11.0,48,0.00,,,0.00,498.000000,,2013-05-25 03:53:00,
2013-05-24 20:12:00,56.0,36.0,-100.00,SSE,162,5.0,11.0,46,0.00,,,0.00,346.000000,,2013-05-25 04:12:00,
2013-05-24 20:23:00,56.0,36.0,-100.00,SSE,162,5.0,11.0,46,0.00,,,0.00,346.000000,,2013-05-25 04:23:00,
2013-05-24 20:32:00,56.0,36.0,-100.00,SSE,162,5.0,11.0,46,0.00,,,0.00,346.000000,,2013-05-25 04:32:00,
2013-05-24 20:43:00,56.0,36.0,-100.00,SSE,162,5.0,11.0,46,0.00,,,0.00,346.000000,,2013-05-25 04:43:00,
2013-05-24 20:52:00,56.0,36.0,-100.00,SSE,162,5.0,11.0,46,0.00,,,0.00,346.000000,,2013-05-25 04:52:00,
2013-05-24 21:12:00,55.0,36.0,-100.00,SSW,193,3.0,7.0,48,0.00,,,0.00,182.000000,,2013-05-25 05:12:00,
2013-05-24 21:22:00,55.0,36.0,-100.00,SSW,193,3.0,7.0,48,0.00,,,0.00,182.000000,,2013-05-25 05:22:00,
2013-05-24 21:32:00,55.0,36.0,-100.00,SSW,193,3.0,7.0,48,0.00,,,0.00,182.000000,,2013-05-25 05:32:00,
2013-05-24 21:42:00,55.0,36.0,-100.00,SSW,193,3.0,7.0,48,0.00,,,0.00,182.000000,,2013-05-25 05:42:00,
2013-05-24 21:52:00,55.0,36.0,-100.00,SSW,193,3.0,7.0,48,0.00,,,0.00,182.000000,,2013-05-25 05:52:00,
2013-05-24 22:12:00,49.0,34.0,-100.00,SSW,211,0.0,5.0,55,0.00,,,0.00,63.000000,,2013-05-25 06:12:00,
2013-05-24 22:21:00,49.0,34.0,-100.00,SSW,211,0.0,5.0,55,0.00,,,0.00,63.000000,,2013-05-25 06:21:00,
2013-05-24 22:32:00,49.0,34.0,-100.00,SSW,211,0.0,5.0,55,0.00,,,0.00,63.000000,,2013-05-25 06:32:00,
2013-05-24 22:42:00,49.0,34.0,-100.00,SSW,211,0.0,5.0,55,0.00,,,0.00,63.000000,,2013-05-25 06:42:00,
2013-05-24 22:51:00,49.0,34.0,-100.00,SSW,211,0.0,5.0,55,0.00,,,0.00,63.000000,,2013-05-25 06:51:00,
2013-05-24 23:11:00,44.0,34.0,-100.00,West,262,0.0,1.0,68,0.00,,,0.00,12.000000,,2013-05-25 07:11:00,
2013-05-24 23:21:00,44.0,34.0,-100.00,West,262,0.0,1.0,68,0.00,,,0.00,12.000000,,2013-05-25 07:21:00,
2013-05-24 23:31:00,44.0,34.0,-100.00,West,262,0.0,1.0,68,0.00,,,0.00,12.000000,,2013-05-25 07:31:00,
2013-05-24 23:41:00,44.0,34.0,-100.00,West,262,0.0,1.0,68,0.00,,,0.00,12.000000,,2013-05-25 07:41:00,
2013-05-24 23:52:00,44.0,34.0,-100.00,West,262,0.0,1.0,68,0.00,,,0.00,12.000000,,2013-05-25 07:52:00,